createdAt,value
2017-10-11T00:00:44.196Z,14.6
2017-10-11T00:01:44.518Z,14.58
2017-10-11T00:02:43.869Z,14.6
2017-10-11T00:03:44.512Z,14.6
2017-10-11T00:04:44.510Z,14.6
2017-10-11T00:05:44.194Z,14.58
2017-10-11T00:06:44.192Z,14.51
2017-10-11T00:07:44.186Z,14.51
2017-10-11T00:08:44.187Z,14.59
2017-10-11T00:09:44.186Z,14.51
2017-10-11T00:10:44.192Z,14.53
2017-10-11T00:11:44.196Z,14.5
2017-10-11T00:12:44.191Z,14.48
2017-10-11T00:13:44.509Z,14.53
2017-10-11T00:14:44.507Z,14.55
2017-10-11T00:15:44.228Z,14.58
2017-10-11T00:16:44.182Z,14.59
2017-10-11T00:17:44.190Z,14.59
2017-10-11T00:18:44.199Z,14.59
2017-10-11T00:19:44.500Z,14.55
2017-10-11T00:20:44.543Z,14.54
2017-10-11T00:21:44.173Z,14.6
2017-10-11T00:22:44.495Z,14.55
2017-10-11T00:23:44.181Z,14.6
2017-10-11T00:24:44.173Z,14.63
2017-10-11T00:25:44.557Z,14.53
2017-10-11T00:26:44.174Z,14.65
2017-10-11T00:27:44.496Z,14.6
2017-10-11T00:28:44.514Z,14.65
2017-10-11T00:29:44.170Z,14.59
2017-10-11T00:30:45.562Z,14.55
2017-10-11T00:31:44.163Z,14.59
2017-10-11T00:32:44.166Z,14.59
2017-10-11T00:33:44.488Z,14.55
2017-10-11T00:34:44.483Z,14.63
2017-10-11T00:35:44.163Z,14.63
2017-10-11T00:36:44.163Z,14.58
2017-10-11T00:37:44.161Z,14.59
2017-10-11T00:38:44.480Z,14.59
2017-10-11T00:39:44.490Z,14.6
2017-10-11T00:40:44.167Z,14.62
2017-10-11T00:41:44.164Z,14.63
2017-10-11T00:42:44.153Z,14.59
2017-10-11T00:43:44.155Z,14.58
2017-10-11T00:44:43.827Z,14.5
2017-10-11T00:45:46.234Z,14.51
2017-10-11T00:46:44.149Z,14.51
2017-10-11T00:47:44.481Z,14.54
2017-10-11T00:48:44.163Z,14.54
2017-10-11T00:49:44.145Z,14.43
2017-10-11T00:50:43.881Z,14.53
2017-10-11T00:51:44.473Z,14.55
2017-10-11T00:52:44.147Z,14.53
2017-10-11T00:53:44.145Z,14.51
2017-10-11T00:54:44.148Z,14.5
2017-10-11T00:55:44.468Z,14.53
2017-10-11T00:56:44.464Z,14.55
2017-10-11T00:57:44.168Z,14.5
2017-10-11T00:58:44.134Z,14.58
2017-10-11T00:59:44.150Z,14.62
2017-10-11T01:00:44.461Z,14.59
2017-10-11T01:01:44.141Z,14.6
2017-10-11T01:02:44.142Z,14.58
2017-10-11T01:03:44.134Z,14.6
2017-10-11T01:04:44.452Z,14.66
2017-10-11T01:05:44.126Z,14.6
2017-10-11T01:06:44.448Z,14.63
2017-10-11T01:07:44.124Z,14.63
2017-10-11T01:08:44.123Z,14.62
2017-10-11T01:09:44.123Z,14.62
2017-10-11T01:10:44.154Z,14.6
2017-10-11T01:11:44.122Z,14.69
2017-10-11T01:12:44.122Z,14.62
2017-10-11T01:13:44.124Z,14.63
2017-10-11T01:14:44.435Z,14.63
2017-10-11T01:15:44.122Z,14.68
2017-10-11T01:16:44.130Z,14.65
2017-10-11T01:17:44.432Z,14.69
2017-10-11T01:18:44.440Z,14.62
2017-10-11T01:19:44.435Z,14.59
2017-10-11T01:20:44.156Z,14.66
2017-10-11T01:21:44.112Z,14.55
2017-10-11T01:22:44.117Z,14.55
2017-10-11T01:23:44.115Z,14.58
2017-10-11T01:24:44.110Z,14.62
2017-10-11T01:25:44.110Z,14.65
2017-10-11T01:26:44.425Z,14.54
2017-10-11T01:27:44.106Z,14.5
2017-10-11T01:28:44.124Z,14.48
2017-10-11T01:29:44.107Z,14.55
2017-10-11T01:30:44.166Z,14.48
2017-10-11T01:31:44.101Z,14.54
2017-10-11T01:32:44.109Z,14.5
2017-10-11T01:33:44.105Z,14.48
2017-10-11T01:34:43.783Z,14.43
2017-10-11T01:35:44.462Z,14.35
2017-10-11T01:36:44.101Z,14.33
2017-10-11T01:37:44.098Z,14.36
2017-10-11T01:38:44.098Z,14.3
2017-10-11T01:39:43.770Z,14.4
2017-10-11T01:40:44.169Z,14.36
2017-10-11T01:41:44.094Z,14.36
2017-10-11T01:42:44.412Z,14.4
2017-10-11T01:43:44.416Z,14.45
2017-10-11T01:44:44.414Z,14.47
2017-10-11T01:45:44.411Z,14.33
2017-10-11T01:46:44.411Z,14.36
2017-10-11T01:47:44.095Z,14.43
2017-10-11T01:48:44.410Z,14.41
2017-10-11T01:49:44.107Z,14.45
2017-10-11T01:50:44.089Z,14.43
2017-10-11T01:51:44.089Z,14.41
2017-10-11T01:52:44.411Z,14.41
2017-10-11T01:53:44.088Z,14.43
2017-10-11T01:54:44.086Z,14.41
2017-10-11T01:55:44.438Z,14.45
2017-10-11T01:56:44.404Z,14.48
2017-10-11T01:57:44.402Z,14.44
2017-10-11T01:58:44.416Z,14.4
2017-10-11T01:59:44.082Z,14.45
2017-10-11T02:00:44.081Z,14.47
2017-10-11T02:01:44.421Z,14.44
2017-10-11T02:02:44.081Z,14.43
2017-10-11T02:03:44.097Z,14.41
2017-10-11T02:04:44.080Z,14.41
2017-10-11T02:05:44.424Z,14.43
2017-10-11T02:06:44.400Z,14.41
2017-10-11T02:07:44.414Z,14.4
2017-10-11T02:08:44.079Z,14.41
2017-10-11T02:09:44.413Z,14.41
2017-10-11T02:10:44.146Z,14.44
2017-10-11T02:11:44.396Z,14.37
2017-10-11T02:12:44.396Z,14.35
2017-10-11T02:13:44.081Z,14.37
2017-10-11T02:14:44.406Z,14.41
2017-10-11T02:15:44.224Z,14.33
2017-10-11T02:16:44.078Z,14.28
2017-10-11T02:17:44.075Z,14.32
2017-10-11T02:18:43.753Z,14.32
2017-10-11T02:19:44.069Z,14.37
2017-10-11T02:20:44.072Z,14.35
2017-10-11T02:21:44.396Z,14.35
2017-10-11T02:22:44.389Z,14.37
2017-10-11T02:23:44.066Z,14.32
2017-10-11T02:24:44.391Z,14.36
2017-10-11T02:25:44.409Z,14.3
2017-10-11T02:26:44.073Z,14.36
2017-10-11T02:27:44.392Z,14.35
2017-10-11T02:28:44.071Z,14.35
2017-10-11T02:29:43.767Z,14.3
2017-10-11T02:30:44.459Z,14.26
2017-10-11T02:31:44.530Z,14.35
2017-10-11T02:32:44.407Z,14.28
2017-10-11T02:33:44.380Z,14.25
2017-10-11T02:34:43.734Z,14.26
2017-10-11T02:35:44.413Z,14.22
2017-10-11T02:36:44.064Z,14.22
2017-10-11T02:37:44.383Z,14.22
2017-10-11T02:38:44.378Z,14.22
2017-10-11T02:39:44.057Z,14.17
2017-10-11T02:40:44.394Z,14.23
2017-10-11T02:41:44.047Z,14.18
2017-10-11T02:42:44.048Z,14.23
2017-10-11T02:43:44.048Z,14.23
2017-10-11T02:44:44.048Z,14.22
2017-10-11T02:45:44.058Z,14.23
2017-10-11T02:46:45.171Z,14.18
2017-10-11T02:47:44.369Z,14.2
2017-10-11T02:48:44.050Z,14.22
2017-10-11T02:49:44.044Z,14.18
2017-10-11T02:50:44.076Z,14.17
2017-10-11T02:51:44.369Z,14.17
2017-10-11T02:52:44.366Z,14.25
2017-10-11T02:53:44.041Z,14.18
2017-10-11T02:54:44.369Z,14.14
2017-10-11T02:55:44.397Z,14.11
2017-10-11T02:56:44.366Z,14.11
2017-10-11T02:57:44.376Z,14.1
2017-10-11T02:58:44.365Z,14.07
2017-10-11T02:59:44.366Z,14.1
2017-10-11T03:00:44.032Z,14.07
2017-10-11T03:01:44.561Z,14.12
2017-10-11T03:02:44.031Z,14.14
2017-10-11T03:03:44.029Z,14.14
2017-10-11T03:04:44.356Z,14.1
2017-10-11T03:05:44.050Z,14.14
2017-10-11T03:06:44.032Z,14.12
2017-10-11T03:07:44.355Z,14.17
2017-10-11T03:08:44.366Z,13.99
2017-10-11T03:09:44.032Z,14.1
2017-10-11T03:10:44.065Z,14.07
2017-10-11T03:11:43.711Z,14
2017-10-11T03:12:44.040Z,14.1
2017-10-11T03:13:44.353Z,14.12
2017-10-11T03:14:44.029Z,14.07
2017-10-11T03:15:44.044Z,14.07
2017-10-11T03:16:45.851Z,14.12
2017-10-11T03:17:44.042Z,14.11
2017-10-11T03:18:44.015Z,14.11
2017-10-11T03:19:43.693Z,14.1
2017-10-11T03:20:44.339Z,14.05
2017-10-11T03:21:44.014Z,14.14
2017-10-11T03:22:44.017Z,14.11
2017-10-11T03:23:44.021Z,14.05
2017-10-11T03:24:43.693Z,14.14
2017-10-11T03:25:43.691Z,14.05
2017-10-11T03:26:44.010Z,14.05
2017-10-11T03:27:43.691Z,14.11
2017-10-11T03:28:43.686Z,14.08
2017-10-11T03:29:44.337Z,14.05
2017-10-11T03:30:44.032Z,14.11
2017-10-11T03:31:45.108Z,14.05
2017-10-11T03:32:44.335Z,14.04
2017-10-11T03:33:44.005Z,14.05
2017-10-11T03:34:44.327Z,13.93
2017-10-11T03:35:43.731Z,14.07
2017-10-11T03:36:44.329Z,13.97
2017-10-11T03:37:44.002Z,14.08
2017-10-11T03:38:44.003Z,14.04
2017-10-11T03:39:43.680Z,14.05
2017-10-11T03:40:44.332Z,14.1
2017-10-11T03:41:44.317Z,14.08
2017-10-11T03:42:43.677Z,14.17
2017-10-11T03:43:44.000Z,14.05
2017-10-11T03:44:44.314Z,14
2017-10-11T03:45:44.314Z,14
2017-10-11T03:46:43.997Z,14.08
2017-10-11T03:47:43.677Z,13.95
2017-10-11T03:48:43.674Z,13.92
2017-10-11T03:49:43.673Z,14.03
2017-10-11T03:50:44.379Z,13.97
2017-10-11T03:51:43.985Z,13.99
2017-10-11T03:52:44.339Z,13.99
2017-10-11T03:53:44.357Z,13.95
2017-10-11T03:54:44.026Z,14.03
2017-10-11T03:55:44.084Z,13.96
2017-10-11T03:56:43.984Z,13.95
2017-10-11T03:57:44.310Z,13.96
2017-10-11T03:58:44.307Z,13.97
2017-10-11T03:59:44.303Z,13.95
2017-10-11T04:00:44.813Z,14.04
2017-10-11T04:01:44.314Z,13.93
2017-10-11T04:02:43.990Z,13.99
2017-10-11T04:03:43.654Z,13.93
2017-10-11T04:04:44.299Z,13.9
2017-10-11T04:05:43.981Z,13.86
2017-10-11T04:06:44.305Z,13.89
2017-10-11T04:07:43.971Z,13.93
2017-10-11T04:08:44.294Z,13.97
2017-10-11T04:09:43.973Z,13.87
2017-10-11T04:10:43.716Z,13.79
2017-10-11T04:11:43.993Z,13.81
2017-10-11T04:12:43.650Z,13.83
2017-10-11T04:13:44.284Z,13.86
2017-10-11T04:14:43.971Z,13.86
2017-10-11T04:15:43.674Z,13.86
2017-10-11T04:16:44.283Z,13.9
2017-10-11T04:17:44.277Z,13.86
2017-10-11T04:18:44.283Z,13.83
2017-10-11T04:19:43.637Z,13.83
2017-10-11T04:20:44.327Z,13.89
2017-10-11T04:21:44.269Z,13.9
2017-10-11T04:22:43.968Z,13.9
2017-10-11T04:23:43.638Z,13.81
2017-10-11T04:24:44.276Z,13.83
2017-10-11T04:25:44.282Z,13.81
2017-10-11T04:26:44.272Z,13.93
2017-10-11T04:27:44.270Z,13.83
2017-10-11T04:28:44.275Z,13.86
2017-10-11T04:29:43.947Z,13.87
2017-10-11T04:30:44.370Z,13.89
2017-10-11T04:31:44.338Z,13.79
2017-10-11T04:32:46.041Z,13.83
2017-10-11T04:33:43.946Z,13.78
2017-10-11T04:34:43.941Z,13.71
2017-10-11T04:35:43.931Z,13.7
2017-10-11T04:36:44.256Z,13.71
2017-10-11T04:37:44.266Z,13.79
2017-10-11T04:38:44.256Z,13.68
2017-10-11T04:39:44.246Z,13.72
2017-10-11T04:40:43.923Z,13.75
2017-10-11T04:41:44.246Z,13.7
2017-10-11T04:42:43.924Z,13.74
2017-10-11T04:43:43.928Z,13.68
2017-10-11T04:44:44.239Z,13.68
2017-10-11T04:45:43.975Z,13.68
2017-10-11T04:46:43.607Z,13.68
2017-10-11T04:47:47.325Z,13.75
2017-10-11T04:48:43.918Z,13.71
2017-10-11T04:49:43.908Z,13.71
2017-10-11T04:50:44.287Z,13.79
2017-10-11T04:51:43.580Z,13.83
2017-10-11T04:52:44.228Z,13.81
2017-10-11T04:53:44.224Z,13.83
2017-10-11T04:54:44.243Z,13.83
2017-10-11T04:55:43.946Z,13.86
2017-10-11T04:56:43.902Z,13.92
2017-10-11T04:57:44.229Z,13.85
2017-10-11T04:58:43.906Z,13.92
2017-10-11T04:59:44.226Z,13.85
2017-10-11T05:00:43.899Z,13.83
2017-10-11T05:01:44.218Z,13.87
2017-10-11T05:02:44.259Z,13.79
2017-10-11T05:03:43.889Z,13.86
2017-10-11T05:04:44.222Z,13.86
2017-10-11T05:05:43.892Z,13.85
2017-10-11T05:06:43.570Z,13.81
2017-10-11T05:07:43.883Z,13.85
2017-10-11T05:08:43.877Z,13.81
2017-10-11T05:09:43.879Z,13.79
2017-10-11T05:10:44.292Z,13.83
2017-10-11T05:11:43.880Z,13.81
2017-10-11T05:12:44.203Z,13.78
2017-10-11T05:13:44.199Z,13.85
2017-10-11T05:14:43.869Z,13.79
2017-10-11T05:15:43.878Z,13.78
2017-10-11T05:16:43.868Z,13.83
2017-10-11T05:17:43.866Z,13.86
2017-10-11T05:18:43.869Z,13.85
2017-10-11T05:19:43.542Z,13.85
2017-10-11T05:20:44.262Z,13.83
2017-10-11T05:21:43.862Z,13.87
2017-10-11T05:22:44.220Z,13.78
2017-10-11T05:23:43.858Z,13.95
2017-10-11T05:24:44.184Z,13.96
2017-10-11T05:25:44.190Z,13.95
2017-10-11T05:26:43.868Z,13.96
2017-10-11T05:27:44.173Z,13.99
2017-10-11T05:28:43.865Z,14.11
2017-10-11T05:29:44.171Z,14.04
2017-10-11T05:30:44.178Z,14.05
2017-10-11T05:31:43.526Z,14.12
2017-10-11T05:32:44.164Z,14.15
2017-10-11T05:33:44.195Z,14.15
2017-10-11T05:34:44.177Z,14.17
2017-10-11T05:35:43.846Z,14.2
2017-10-11T05:36:44.169Z,14.22
2017-10-11T05:37:43.847Z,14.29
2017-10-11T05:38:43.518Z,14.29
2017-10-11T05:39:43.854Z,14.2
2017-10-11T05:40:43.831Z,14.33
2017-10-11T05:41:44.165Z,14.36
2017-10-11T05:42:43.508Z,14.36
2017-10-11T05:43:43.842Z,14.37
2017-10-11T05:44:43.835Z,14.3
2017-10-11T05:45:44.153Z,14.3
2017-10-11T05:46:44.151Z,14.35
2017-10-11T05:47:44.146Z,14.43
2017-10-11T05:48:44.215Z,14.32
2017-10-11T05:49:43.825Z,14.37
2017-10-11T05:50:44.146Z,14.28
2017-10-11T05:51:44.147Z,14.36
2017-10-11T05:52:44.135Z,14.35
2017-10-11T05:53:43.824Z,14.25
2017-10-11T05:54:43.812Z,14.33
2017-10-11T05:55:44.146Z,14.4
2017-10-11T05:56:43.819Z,14.28
2017-10-11T05:57:44.133Z,14.37
2017-10-11T05:58:44.143Z,14.36
2017-10-11T05:59:43.488Z,14.35
2017-10-11T06:00:43.808Z,14.3
2017-10-11T06:01:44.129Z,14.29
2017-10-11T06:02:43.487Z,14.35
2017-10-11T06:03:45.332Z,14.4
2017-10-11T06:04:44.130Z,14.33
2017-10-11T06:05:43.865Z,14.4
2017-10-11T06:06:44.162Z,14.4
2017-10-11T06:07:44.145Z,14.43
2017-10-11T06:08:43.804Z,14.37
2017-10-11T06:09:43.801Z,14.35
2017-10-11T06:10:44.123Z,14.36
2017-10-11T06:11:44.124Z,14.37
2017-10-11T06:12:43.801Z,14.33
2017-10-11T06:13:43.793Z,14.4
2017-10-11T06:14:43.796Z,14.3
2017-10-11T06:15:44.172Z,14.37
2017-10-11T06:16:44.119Z,14.4
2017-10-11T06:17:44.108Z,14.33
2017-10-11T06:18:48.542Z,14.4
2017-10-11T06:19:43.793Z,14.33
2017-10-11T06:20:44.107Z,14.37
2017-10-11T06:21:43.785Z,14.43
2017-10-11T06:22:44.104Z,14.41
2017-10-11T06:23:44.132Z,14.44
2017-10-11T06:24:43.789Z,14.41
2017-10-11T06:25:43.468Z,14.51
2017-10-11T06:26:44.110Z,14.43
2017-10-11T06:27:43.466Z,14.51
2017-10-11T06:28:43.469Z,14.54
2017-10-11T06:29:44.109Z,14.55
2017-10-11T06:30:44.105Z,14.68
2017-10-11T06:31:44.104Z,14.65
2017-10-11T06:32:44.102Z,14.63
2017-10-11T06:33:43.788Z,14.63
2017-10-11T06:34:43.774Z,14.59
2017-10-11T06:35:44.144Z,14.69
2017-10-11T06:36:43.784Z,14.6
2017-10-11T06:37:44.098Z,14.72
2017-10-11T06:38:43.786Z,14.62
2017-10-11T06:39:43.790Z,14.68
2017-10-11T06:40:44.104Z,14.77
2017-10-11T06:41:44.092Z,14.81
2017-10-11T06:42:43.451Z,14.86
2017-10-11T06:43:43.774Z,14.88
2017-10-11T06:44:44.095Z,14.91
2017-10-11T06:45:43.778Z,14.91
2017-10-11T06:46:44.141Z,14.97
2017-10-11T06:47:44.124Z,14.97
2017-10-11T06:48:43.775Z,14.96
2017-10-11T06:49:43.842Z,14.97
2017-10-11T06:50:44.153Z,14.96
2017-10-11T06:51:44.099Z,14.96
2017-10-11T06:52:44.085Z,14.92
2017-10-11T06:53:44.098Z,14.89
2017-10-11T06:54:43.464Z,14.97
2017-10-11T06:55:43.764Z,14.99
2017-10-11T06:56:43.783Z,14.99
2017-10-11T06:57:43.762Z,14.96
2017-10-11T06:58:43.775Z,15.07
2017-10-11T06:59:44.083Z,15.03
2017-10-11T07:00:43.762Z,15
2017-10-11T07:01:43.770Z,15.03
2017-10-11T07:02:43.449Z,15.15
2017-10-11T07:03:43.766Z,15.11
2017-10-11T07:04:45.188Z,15.19
2017-10-11T07:05:44.093Z,15.22
2017-10-11T07:06:44.089Z,15.29
2017-10-11T07:07:44.078Z,15.37
2017-10-11T07:08:43.448Z,15.4
2017-10-11T07:09:43.761Z,15.68
2017-10-11T07:10:43.438Z,15.64
2017-10-11T07:11:43.765Z,15.95
2017-10-11T07:12:43.769Z,16.17
2017-10-11T07:13:43.767Z,16.31
2017-10-11T07:14:43.761Z,16.38
2017-10-11T07:15:43.795Z,16.39
2017-10-11T07:16:43.761Z,16.43
2017-10-11T07:17:44.085Z,16.49
2017-10-11T07:18:43.767Z,16.41
2017-10-11T07:19:44.085Z,16.32
2017-10-11T07:20:44.135Z,16.36
2017-10-11T07:21:44.087Z,16.36
2017-10-11T07:22:43.449Z,16.36
2017-10-11T07:23:43.770Z,16.38
2017-10-11T07:24:44.087Z,16.47
2017-10-11T07:25:43.444Z,16.47
2017-10-11T07:26:43.446Z,16.47
2017-10-11T07:27:43.767Z,16.58
2017-10-11T07:28:43.448Z,16.6
2017-10-11T07:29:44.091Z,16.68
2017-10-11T07:30:43.773Z,16.71
2017-10-11T07:31:44.096Z,16.74
2017-10-11T07:32:43.765Z,16.74
2017-10-11T07:33:43.454Z,16.79
2017-10-11T07:34:44.390Z,16.75
2017-10-11T07:35:44.093Z,16.78
2017-10-11T07:36:43.773Z,16.87
2017-10-11T07:37:43.787Z,16.91
2017-10-11T07:38:43.774Z,17.34
2017-10-11T07:39:44.093Z,17.6
2017-10-11T07:40:43.816Z,17.68
2017-10-11T07:41:43.782Z,17.71
2017-10-11T07:42:44.100Z,17.71
2017-10-11T07:43:44.101Z,17.65
2017-10-11T07:44:43.459Z,17.6
2017-10-11T07:45:43.780Z,17.48
2017-10-11T07:46:44.111Z,17.49
2017-10-11T07:47:44.131Z,17.34
2017-10-11T07:48:43.464Z,17.42
2017-10-11T07:49:47.659Z,17.23
2017-10-11T07:50:43.788Z,17.22
2017-10-11T07:51:43.786Z,17.15
2017-10-11T07:52:43.796Z,16.97
2017-10-11T07:53:43.790Z,16.99
2017-10-11T07:54:43.797Z,16.81
2017-10-11T07:55:44.203Z,16.89
2017-10-11T07:56:43.473Z,16.94
2017-10-11T07:57:44.120Z,16.97
2017-10-11T07:58:44.118Z,16.87
2017-10-11T07:59:44.118Z,16.93
2017-10-11T08:00:45.792Z,16.94
2017-10-11T08:01:43.481Z,16.96
2017-10-11T08:02:43.798Z,16.96
2017-10-11T08:03:43.481Z,17.09
2017-10-11T08:04:44.144Z,17.05
2017-10-11T08:05:48.137Z,17.04
2017-10-11T08:06:43.493Z,17.06
2017-10-11T08:07:44.143Z,17.01
2017-10-11T08:08:43.491Z,16.93
2017-10-11T08:09:43.810Z,16.9
2017-10-11T08:10:43.812Z,16.97
2017-10-11T08:11:43.817Z,16.99
2017-10-11T08:12:44.139Z,17.04
2017-10-11T08:13:44.150Z,17.05
2017-10-11T08:14:44.141Z,17.2
2017-10-11T08:15:43.833Z,17.24
2017-10-11T08:16:43.818Z,17.33
2017-10-11T08:17:44.144Z,17.44
2017-10-11T08:18:44.141Z,17.39
2017-10-11T08:19:43.819Z,17.51
2017-10-11T08:20:44.147Z,17.65
2017-10-11T08:21:44.144Z,17.59
2017-10-11T08:22:43.508Z,17.67
2017-10-11T08:23:44.151Z,17.72
2017-10-11T08:24:43.824Z,17.86
2017-10-11T08:25:44.151Z,17.79
2017-10-11T08:26:43.829Z,17.8
2017-10-11T08:27:44.150Z,17.83
2017-10-11T08:28:44.162Z,17.87
2017-10-11T08:29:43.515Z,17.82
2017-10-11T08:30:44.164Z,17.89
2017-10-11T08:31:43.857Z,18.07
2017-10-11T08:32:44.169Z,18.03
2017-10-11T08:33:43.855Z,18.13
2017-10-11T08:34:44.172Z,18.08
2017-10-11T08:35:43.846Z,18.16
2017-10-11T08:36:43.858Z,18.23
2017-10-11T08:37:43.879Z,18.18
2017-10-11T08:38:43.860Z,18.13
2017-10-11T08:39:43.859Z,18.22
2017-10-11T08:40:44.177Z,18.23
2017-10-11T08:41:44.175Z,18.26
2017-10-11T08:42:43.537Z,18.31
2017-10-11T08:43:44.188Z,18.26
2017-10-11T08:44:43.869Z,18.34
2017-10-11T08:45:43.906Z,18.38
2017-10-11T08:46:44.191Z,18.35
2017-10-11T08:47:43.875Z,18.44
2017-10-11T08:48:43.545Z,18.49
2017-10-11T08:49:43.887Z,18.58
2017-10-11T08:50:43.874Z,18.63
2017-10-11T08:51:49.251Z,18.71
2017-10-11T08:52:43.876Z,18.71
2017-10-11T08:53:43.878Z,18.86
2017-10-11T08:54:43.892Z,18.95
2017-10-11T08:55:44.208Z,18.93
2017-10-11T08:56:43.573Z,18.99
2017-10-11T08:57:43.567Z,19.07
2017-10-11T08:58:43.888Z,19.07
2017-10-11T08:59:44.222Z,19.12
2017-10-11T09:00:43.901Z,19.02
2017-10-11T09:01:43.913Z,19.11
2017-10-11T09:02:43.904Z,19.16
2017-10-11T09:03:43.907Z,19.11
2017-10-11T09:04:43.902Z,19.12
2017-10-11T09:05:43.960Z,19.09
2017-10-11T09:06:43.905Z,19.12
2017-10-11T09:07:43.922Z,19.24
2017-10-11T09:08:44.235Z,19.27
2017-10-11T09:09:44.245Z,19.29
2017-10-11T09:10:44.304Z,19.27
2017-10-11T09:11:43.928Z,19.22
2017-10-11T09:12:44.243Z,19.27
2017-10-11T09:13:43.612Z,19.22
2017-10-11T09:14:43.929Z,19.21
2017-10-11T09:15:43.942Z,19.31
2017-10-11T09:16:43.938Z,19.39
2017-10-11T09:17:44.265Z,19.34
2017-10-11T09:18:43.951Z,19.39
2017-10-11T09:19:44.272Z,19.29
2017-10-11T09:20:43.991Z,19.41
2017-10-11T09:21:43.980Z,19.47
2017-10-11T09:22:43.949Z,19.64
2017-10-11T09:23:44.274Z,19.79
2017-10-11T09:24:43.963Z,19.85
2017-10-11T09:25:44.009Z,19.96
2017-10-11T09:26:43.965Z,19.94
2017-10-11T09:27:43.660Z,20.02
2017-10-11T09:28:44.290Z,20
2017-10-11T09:29:43.971Z,19.86
2017-10-11T09:30:44.320Z,19.86
2017-10-11T09:31:43.974Z,19.74
2017-10-11T09:32:43.979Z,19.79
2017-10-11T09:33:44.314Z,19.77
2017-10-11T09:34:43.999Z,19.7
2017-10-11T09:35:44.001Z,19.62
2017-10-11T09:36:43.997Z,19.51
2017-10-11T09:37:43.992Z,19.45
2017-10-11T09:38:44.322Z,19.36
2017-10-11T09:39:44.323Z,19.36
2017-10-11T09:40:44.353Z,19.31
2017-10-11T09:41:44.329Z,19.33
2017-10-11T09:42:44.326Z,19.26
2017-10-11T09:43:44.331Z,19.29
2017-10-11T09:44:44.017Z,19.31
2017-10-11T09:45:44.369Z,19.33
2017-10-11T09:46:44.342Z,19.47
2017-10-11T09:47:44.020Z,19.52
2017-10-11T09:48:43.713Z,19.54
2017-10-11T09:49:43.705Z,19.56
2017-10-11T09:50:44.375Z,19.66
2017-10-11T09:51:44.030Z,19.64
2017-10-11T09:52:44.037Z,19.58
2017-10-11T09:53:43.726Z,19.48
2017-10-11T09:54:44.363Z,19.45
2017-10-11T09:55:44.409Z,19.36
2017-10-11T09:56:44.038Z,19.33
2017-10-11T09:57:44.046Z,19.33
2017-10-11T09:58:44.371Z,19.4
2017-10-11T09:59:44.370Z,19.44
2017-10-11T10:00:44.372Z,19.45
2017-10-11T10:01:44.054Z,19.4
2017-10-11T10:02:44.059Z,19.39
2017-10-11T10:03:43.742Z,19.41
2017-10-11T10:04:43.742Z,19.41
2017-10-11T10:05:44.142Z,19.41
2017-10-11T10:06:44.068Z,19.45
2017-10-11T10:07:44.075Z,19.41
2017-10-11T10:08:44.074Z,19.36
2017-10-11T10:09:43.753Z,19.33
2017-10-11T10:10:44.128Z,19.3
2017-10-11T10:11:44.090Z,19.47
2017-10-11T10:12:44.081Z,19.55
2017-10-11T10:13:44.425Z,19.7
2017-10-11T10:14:43.774Z,19.85
2017-10-11T10:15:44.432Z,19.99
2017-10-11T10:16:44.452Z,20.09
2017-10-11T10:17:44.101Z,20.02
2017-10-11T10:18:44.105Z,20.03
2017-10-11T10:19:44.437Z,20.02
2017-10-11T10:20:44.113Z,19.96
2017-10-11T10:21:44.106Z,19.79
2017-10-11T10:22:46.718Z,19.91
2017-10-11T10:23:43.795Z,19.81
2017-10-11T10:24:44.444Z,19.85
2017-10-11T10:25:44.139Z,19.99
2017-10-11T10:26:43.803Z,19.94
2017-10-11T10:27:44.467Z,19.84
2017-10-11T10:28:44.131Z,19.85
2017-10-11T10:29:44.450Z,19.71
2017-10-11T10:30:44.546Z,19.67
2017-10-11T10:31:44.142Z,19.62
2017-10-11T10:32:44.141Z,19.59
2017-10-11T10:33:44.478Z,19.73
2017-10-11T10:34:44.470Z,19.69
2017-10-11T10:35:44.475Z,19.79
2017-10-11T10:36:44.155Z,19.84
2017-10-11T10:37:49.590Z,19.82
2017-10-11T10:38:44.158Z,19.86
2017-10-11T10:39:44.157Z,19.94
2017-10-11T10:40:44.182Z,19.84
2017-10-11T10:41:44.502Z,19.91
2017-10-11T10:42:44.194Z,19.92
2017-10-11T10:43:44.175Z,19.94
2017-10-11T10:44:44.501Z,20.06
2017-10-11T10:45:43.853Z,20.07
2017-10-11T10:46:44.500Z,20.21
2017-10-11T10:47:44.507Z,20.16
2017-10-11T10:48:44.186Z,20.13
2017-10-11T10:49:44.507Z,20.06
2017-10-11T10:50:44.595Z,20.02
2017-10-11T10:51:44.514Z,20.13
2017-10-11T10:52:44.193Z,20.19
2017-10-11T10:53:44.253Z,20.13
2017-10-11T10:54:44.239Z,20.24
2017-10-11T10:55:43.879Z,20.22
2017-10-11T10:56:44.530Z,20.16
2017-10-11T10:57:44.538Z,20.21
2017-10-11T10:58:44.209Z,20.26
2017-10-11T10:59:44.572Z,20.24
2017-10-11T11:00:43.901Z,20.14
2017-10-11T11:01:43.911Z,20.22
2017-10-11T11:02:44.546Z,20.13
2017-10-11T11:03:44.547Z,20.09
2017-10-11T11:04:44.566Z,20.13
2017-10-11T11:05:44.559Z,20.03
2017-10-11T11:06:44.246Z,19.95
2017-10-11T11:07:44.236Z,19.94
2017-10-11T11:08:44.606Z,19.94
2017-10-11T11:09:44.587Z,19.99
2017-10-11T11:10:44.246Z,20.18
2017-10-11T11:11:44.569Z,20.29
2017-10-11T11:12:44.570Z,20.44
2017-10-11T11:13:44.579Z,20.55
2017-10-11T11:14:44.258Z,20.67
2017-10-11T11:15:44.600Z,20.7
2017-10-11T11:16:43.943Z,20.69
2017-10-11T11:17:44.596Z,20.72
2017-10-11T11:18:44.604Z,20.75
2017-10-11T11:19:43.952Z,20.78
2017-10-11T11:20:44.623Z,20.85
2017-10-11T11:21:44.623Z,20.81
2017-10-11T11:22:43.970Z,20.7
2017-10-11T11:23:44.644Z,20.66
2017-10-11T11:24:44.204Z,20.66
2017-10-11T11:25:44.747Z,20.65
2017-10-11T11:26:44.638Z,20.62
2017-10-11T11:27:43.980Z,20.66
2017-10-11T11:28:44.656Z,20.52
2017-10-11T11:29:44.311Z,20.52
2017-10-11T11:30:44.639Z,20.56
2017-10-11T11:31:44.328Z,20.58
2017-10-11T11:32:44.322Z,20.58
2017-10-11T11:33:44.319Z,20.6
2017-10-11T11:34:44.643Z,20.67
2017-10-11T11:35:44.088Z,20.6
2017-10-11T11:36:44.333Z,20.51
2017-10-11T11:37:44.332Z,20.51
2017-10-11T11:38:44.663Z,20.48
2017-10-11T11:39:44.659Z,20.48
2017-10-11T11:40:44.731Z,20.47
2017-10-11T11:41:44.103Z,20.47
2017-10-11T11:42:44.345Z,20.41
2017-10-11T11:43:44.693Z,20.48
2017-10-11T11:44:44.721Z,20.58
2017-10-11T11:45:44.722Z,20.56
2017-10-11T11:46:44.057Z,20.43
2017-10-11T11:47:44.377Z,20.56
2017-10-11T11:48:44.443Z,20.56
2017-10-11T11:49:44.701Z,20.52
2017-10-11T11:50:44.707Z,20.63
2017-10-11T11:51:44.388Z,20.63
2017-10-11T11:52:44.717Z,20.66
2017-10-11T11:53:44.480Z,20.56
2017-10-11T11:54:44.384Z,20.51
2017-10-11T11:55:44.715Z,20.6
2017-10-11T11:56:44.719Z,20.6
2017-10-11T11:57:44.752Z,20.58
2017-10-11T11:58:44.396Z,20.66
2017-10-11T11:59:44.413Z,20.51
2017-10-11T12:00:44.429Z,20.63
2017-10-11T12:01:44.410Z,20.63
2017-10-11T12:02:44.740Z,20.65
2017-10-11T12:03:44.415Z,20.69
2017-10-11T12:04:44.418Z,20.72
2017-10-11T12:05:44.477Z,20.8
2017-10-11T12:06:44.430Z,20.81
2017-10-11T12:07:44.445Z,20.67
2017-10-11T12:08:46.104Z,20.67
2017-10-11T12:09:44.759Z,20.65
2017-10-11T12:10:44.433Z,20.6
2017-10-11T12:11:44.762Z,20.6
2017-10-11T12:12:44.441Z,20.58
2017-10-11T12:13:44.775Z,20.66
2017-10-11T12:14:44.459Z,20.62
2017-10-11T12:15:44.512Z,20.63
2017-10-11T12:16:44.452Z,20.5
2017-10-11T12:17:44.778Z,20.6
2017-10-11T12:18:44.779Z,20.58
2017-10-11T12:19:44.805Z,20.7
2017-10-11T12:20:44.485Z,20.69
2017-10-11T12:21:44.483Z,20.72
2017-10-11T12:22:44.484Z,20.72
2017-10-11T12:23:45.851Z,20.67
2017-10-11T12:24:44.802Z,20.63
2017-10-11T12:25:44.480Z,20.58
2017-10-11T12:26:44.483Z,20.56
2017-10-11T12:27:44.172Z,20.55
2017-10-11T12:28:44.487Z,20.48
2017-10-11T12:29:44.826Z,20.55
2017-10-11T12:30:44.561Z,20.6
2017-10-11T12:31:44.180Z,20.65
2017-10-11T12:32:44.830Z,20.63
2017-10-11T12:33:44.503Z,20.63
2017-10-11T12:34:44.846Z,20.63
2017-10-11T12:35:44.511Z,20.62
2017-10-11T12:36:44.528Z,20.62
2017-10-11T12:37:44.850Z,20.67
2017-10-11T12:38:48.269Z,20.7
2017-10-11T12:39:44.848Z,20.67
2017-10-11T12:40:44.854Z,20.66
2017-10-11T12:41:44.851Z,20.65
2017-10-11T12:42:44.212Z,20.66
2017-10-11T12:43:44.267Z,20.63
2017-10-11T12:44:44.536Z,20.65
2017-10-11T12:45:44.867Z,20.69
2017-10-11T12:46:44.568Z,20.74
2017-10-11T12:47:44.891Z,20.77
2017-10-11T12:48:44.551Z,20.74
2017-10-11T12:49:44.551Z,20.72
2017-10-11T12:50:44.576Z,20.72
2017-10-11T12:51:44.888Z,20.75
2017-10-11T12:52:44.881Z,20.74
2017-10-11T12:53:44.582Z,20.67
2017-10-11T12:54:44.573Z,20.74
2017-10-11T12:55:44.315Z,20.7